createdAt,value
2023-04-15T00:00:26.209Z,32.35
2023-04-15T00:03:31.086Z,36.10
2023-04-15T00:06:35.801Z,34.10
2023-04-15T00:09:39.690Z,36.20
2023-04-15T00:12:43.790Z,36.17
2023-04-15T00:15:47.545Z,36.22
2023-04-15T00:18:50.964Z,33.20
2023-04-15T00:21:54.600Z,37.67
2023-04-15T00:24:57.720Z,38.38
2023-04-15T00:28:01.159Z,35.30
2023-04-15T00:31:04.542Z,31.20
2023-04-15T00:34:08.555Z,35.10
2023-04-15T00:37:11.865Z,30.88
2023-04-15T00:40:18.981Z,29.77
2023-04-15T00:43:22.763Z,32.60
2023-04-15T00:46:29.757Z,32.72
2023-04-15T00:49:33.278Z,35.40
2023-04-15T00:52:38.012Z,33.10
2023-04-15T00:55:41.229Z,27.27
2023-04-15T00:58:44.651Z,30.75
2023-04-15T01:01:48.957Z,24.40
2023-04-15T01:04:52.668Z,30.77
2023-04-15T01:07:57.411Z,28.48
2023-04-15T01:11:03.817Z,26.07
2023-04-15T01:14:09.109Z,30.35
2023-04-15T01:17:14.305Z,29.17
2023-04-15T01:20:17.712Z,27.48
2023-04-15T01:23:23.332Z,27.52
2023-04-15T01:26:27.688Z,28.08
2023-04-15T01:29:33.346Z,26.45
2023-04-15T01:32:37.095Z,27.43
2023-04-15T01:35:40.463Z,29.25
2023-04-15T01:38:43.952Z,22.95
2023-04-15T01:41:47.658Z,27.07
2023-04-15T01:44:52.397Z,25.80
2023-04-15T01:47:55.942Z,31.55
2023-04-15T01:50:59.715Z,27.73
2023-04-15T01:54:03.676Z,29.10
2023-04-15T01:57:07.080Z,31.70
2023-04-15T02:00:11.769Z,28.27
2023-04-15T02:03:16.106Z,29.97
2023-04-15T02:06:19.588Z,27.75
2023-04-15T02:09:24.017Z,26.27
2023-04-15T02:12:27.854Z,25.13
2023-04-15T02:15:31.120Z,27.87
2023-04-15T02:18:36.560Z,27.83
2023-04-15T02:21:41.768Z,35.25
2023-04-15T02:24:47.208Z,31.90
2023-04-15T02:27:50.198Z,29.10
2023-04-15T02:30:58.542Z,24.25
2023-04-15T02:34:04.426Z,29.67
2023-04-15T02:37:09.974Z,25.10
2023-04-15T02:40:13.650Z,27.37
2023-04-15T02:43:17.850Z,22.80
2023-04-15T02:46:23.049Z,30.55
2023-04-15T02:49:30.020Z,26.02
2023-04-15T02:52:35.071Z,22.87
2023-04-15T02:55:39.505Z,24.17
2023-04-15T02:58:45.799Z,30.05
2023-04-15T03:01:49.738Z,22.55
2023-04-15T03:04:53.139Z,24.17
2023-04-15T03:07:56.772Z,22.42
2023-04-15T03:11:01.035Z,22.62
2023-04-15T03:14:04.855Z,28.55
2023-04-15T03:17:08.228Z,23.80
2023-04-15T03:20:11.863Z,26.02
2023-04-15T03:23:15.059Z,28.73
2023-04-15T03:26:31.912Z,22.20
2023-04-15T03:29:36.877Z,28.20
2023-04-15T03:32:40.884Z,24.25
2023-04-15T03:35:44.788Z,28.33
2023-04-15T03:38:49.472Z,27.25
2023-04-15T03:41:52.773Z,21.33
2023-04-15T03:44:56.401Z,26.42
2023-04-15T03:48:11.560Z,25.17
2023-04-15T03:51:20.863Z,25.40
2023-04-15T03:54:24.786Z,24.75
2023-04-15T03:57:28.357Z,23.50
2023-04-15T04:00:35.579Z,28.10
2023-04-15T04:03:39.287Z,24.15
2023-04-15T04:06:42.394Z,25.42
2023-04-15T04:09:48.405Z,20.92
2023-04-15T04:12:53.868Z,28.58
2023-04-15T04:15:57.338Z,31.58
2023-04-15T04:19:00.875Z,23.53
2023-04-15T04:22:04.656Z,23.08
2023-04-15T04:25:10.254Z,24.20
2023-04-15T04:28:13.792Z,26.60
2023-04-15T04:31:17.222Z,22.60
2023-04-15T04:34:21.261Z,26.87
2023-04-15T04:37:24.991Z,22.70
2023-04-15T04:40:28.305Z,26.12
2023-04-15T04:43:31.487Z,22.90
2023-04-15T04:46:35.906Z,26.52
2023-04-15T04:49:39.594Z,24.98
2023-04-15T04:52:42.953Z,31.60
2023-04-15T04:55:46.045Z,36.35
2023-04-15T04:58:49.499Z,37.38
2023-04-15T05:01:53.260Z,53.63
2023-04-15T05:04:56.901Z,47.33
2023-04-15T05:07:59.958Z,42.70
2023-04-15T05:11:03.831Z,29.55
2023-04-15T05:14:07.754Z,25.90
2023-04-15T05:17:11.764Z,23.15
2023-04-15T05:20:15.812Z,20.23
2023-04-15T05:23:19.620Z,20.95
2023-04-15T05:26:22.879Z,18.60
2023-04-15T05:29:26.386Z,18.80
2023-04-15T05:32:29.593Z,20.52
2023-04-15T05:35:34.541Z,16.33
2023-04-15T05:38:37.841Z,16.02
2023-04-15T05:41:42.178Z,17.67
2023-04-15T05:44:45.309Z,15.50
2023-04-15T05:47:51.043Z,16.87
2023-04-15T05:50:54.794Z,15.40
2023-04-15T05:53:58.395Z,16.30
2023-04-15T05:57:01.901Z,17.98
2023-04-15T06:00:06.449Z,17.80
2023-04-15T06:03:12.748Z,14.65
2023-04-15T06:06:16.638Z,15.60
2023-04-15T06:09:19.724Z,16.70
2023-04-15T06:12:23.028Z,13.80
2023-04-15T06:15:26.220Z,16.85
2023-04-15T06:18:29.867Z,14.82
2023-04-15T06:21:33.605Z,12.60
2023-04-15T06:24:37.256Z,14.23
2023-04-15T06:27:41.545Z,12.68
2023-04-15T06:30:49.120Z,12.45
2023-04-15T06:33:52.483Z,14.67
2023-04-15T06:36:57.198Z,12.88
2023-04-15T06:40:00.291Z,15.20
2023-04-15T06:43:05.008Z,12.73
2023-04-15T06:46:09.010Z,13.85
2023-04-15T06:49:12.472Z,13.68
2023-04-15T06:52:16.817Z,15.63
2023-04-15T06:55:20.382Z,12.48
2023-04-15T06:58:23.475Z,14.48
2023-04-15T07:01:26.884Z,11.93
2023-04-15T07:04:30.690Z,11.90
2023-04-15T07:07:34.280Z,9.98
2023-04-15T07:10:38.243Z,10.55
2023-04-15T07:13:41.611Z,9.60
2023-04-15T07:16:44.914Z,11.38
2023-04-15T07:19:48.340Z,9.88
2023-04-15T07:22:51.433Z,9.05
2023-04-15T07:25:55.958Z,11.07
2023-04-15T07:28:59.082Z,10.33
2023-04-15T07:32:02.828Z,12.52
2023-04-15T07:35:06.290Z,8.70
2023-04-15T07:38:09.719Z,8.10
2023-04-15T07:41:13.154Z,7.00
2023-04-15T07:44:16.749Z,6.67
2023-04-15T07:47:19.925Z,6.63
2023-04-15T07:50:24.302Z,8.15
2023-04-15T07:53:27.607Z,6.75
2023-04-15T07:56:31.234Z,9.15
2023-04-15T07:59:34.495Z,8.33
2023-04-15T08:02:40.214Z,10.10
2023-04-15T08:05:44.837Z,8.90
2023-04-15T08:08:48.366Z,7.43
2023-04-15T08:11:52.059Z,8.52
2023-04-15T08:14:55.717Z,7.07
2023-04-15T08:18:01.402Z,9.25
2023-04-15T08:21:05.902Z,7.18
2023-04-15T08:24:09.356Z,7.35
2023-04-15T08:27:13.789Z,7.53
2023-04-15T08:30:19.675Z,9.37
2023-04-15T08:33:24.027Z,7.90
2023-04-15T08:36:27.642Z,6.43
2023-04-15T08:39:30.918Z,7.22
2023-04-15T08:42:42.974Z,13.80
2023-04-15T08:45:48.761Z,7.13
2023-04-15T08:48:56.722Z,9.90
2023-04-15T08:52:01.837Z,13.30
2023-04-15T08:55:07.621Z,6.37
2023-04-15T08:58:13.020Z,6.93
2023-04-15T09:01:17.171Z,5.97
2023-04-15T09:04:20.789Z,12.33
2023-04-15T09:07:24.188Z,6.65
2023-04-15T09:10:28.267Z,8.00
2023-04-15T09:13:32.199Z,8.18
2023-04-15T09:17:01.479Z,8.53
2023-04-15T09:20:09.960Z,7.37
2023-04-15T09:23:17.671Z,5.97
2023-04-15T09:26:34.863Z,17.40
2023-04-15T09:29:38.251Z,8.73
2023-04-15T09:32:54.137Z,10.83
2023-04-15T09:36:07.017Z,15.07
2023-04-15T09:39:10.467Z,11.27
2023-04-15T09:42:14.609Z,6.75
2023-04-15T09:45:18.177Z,4.60
2023-04-15T09:48:27.400Z,4.10
2023-04-15T09:51:35.936Z,6.87
2023-04-15T09:54:39.303Z,6.80
2023-04-15T09:57:44.463Z,5.15
2023-04-15T10:00:49.331Z,14.93
2023-04-15T10:03:54.610Z,6.37
2023-04-15T10:06:58.536Z,6.53
2023-04-15T10:10:03.826Z,5.68
2023-04-15T10:13:07.567Z,6.37
2023-04-15T10:16:20.017Z,6.05
2023-04-15T10:19:27.806Z,6.07
2023-04-15T10:22:32.818Z,7.53
2023-04-15T10:25:37.541Z,7.50
2023-04-15T10:28:41.789Z,5.10
2023-04-15T10:31:45.608Z,9.65
2023-04-15T10:34:51.882Z,8.70
2023-04-15T10:37:57.007Z,6.87
2023-04-15T10:41:17.678Z,6.32
2023-04-15T10:44:22.720Z,2.95
2023-04-15T10:47:26.256Z,13.70
2023-04-15T10:50:33.769Z,11.07
2023-04-15T10:53:38.078Z,6.10
2023-04-15T10:56:45.864Z,4.50
2023-04-15T10:59:59.210Z,5.35
2023-04-15T11:03:10.041Z,4.45
2023-04-15T11:06:13.699Z,6.40
2023-04-15T11:09:32.676Z,8.50
2023-04-15T11:12:36.591Z,5.85
2023-04-15T11:15:48.065Z,4.00
2023-04-15T11:18:56.149Z,5.55
2023-04-15T11:22:07.611Z,5.13
2023-04-15T11:25:10.935Z,4.70
2023-04-15T11:28:14.376Z,6.37
2023-04-15T11:31:20.115Z,4.68
2023-04-15T11:34:24.117Z,3.60
2023-04-15T11:37:30.480Z,3.60
2023-04-15T11:40:35.585Z,3.73
2023-04-15T11:43:40.423Z,2.90
2023-04-15T11:46:45.470Z,2.42
2023-04-15T11:49:48.979Z,6.07
2023-04-15T11:53:01.098Z,4.27
2023-04-15T11:56:05.077Z,8.33
2023-04-15T11:59:08.434Z,5.65
2023-04-15T12:02:13.645Z,4.47
2023-04-15T12:05:17.456Z,5.87
2023-04-15T12:08:21.376Z,8.93
2023-04-15T12:11:31.041Z,3.93
2023-04-15T12:14:34.460Z,4.82
2023-04-15T12:17:50.976Z,13.85
2023-04-15T12:20:56.154Z,3.58
2023-04-15T12:24:03.051Z,7.03
2023-04-15T12:27:08.051Z,5.47
2023-04-15T12:30:11.849Z,6.97
2023-04-15T12:33:15.451Z,5.03
2023-04-15T12:36:20.086Z,1.87
2023-04-15T12:39:25.680Z,3.83
2023-04-15T12:42:29.389Z,5.80
2023-04-15T12:45:33.052Z,10.70
2023-04-15T12:48:37.009Z,3.37
2023-04-15T12:51:40.017Z,5.70
2023-04-15T12:54:43.591Z,4.27
2023-04-15T12:57:46.724Z,4.23
2023-04-15T13:00:50.492Z,3.87
2023-04-15T13:03:54.089Z,4.43
2023-04-15T13:06:57.705Z,4.32
2023-04-15T13:10:01.198Z,5.03
2023-04-15T13:13:05.603Z,5.40
2023-04-15T13:16:08.811Z,3.95
2023-04-15T13:19:12.228Z,5.15
2023-04-15T13:22:15.640Z,4.68
2023-04-15T13:25:20.150Z,11.30
2023-04-15T13:28:23.229Z,6.33
2023-04-15T13:31:27.350Z,5.10
2023-04-15T13:34:32.107Z,4.20
2023-04-15T13:37:35.684Z,2.95
2023-04-15T13:40:38.906Z,9.57
2023-04-15T13:43:42.417Z,6.10
2023-04-15T13:46:45.605Z,13.13
2023-04-15T13:49:48.957Z,5.85
2023-04-15T13:52:52.956Z,4.32
2023-04-15T13:55:56.502Z,10.03
2023-04-15T13:59:02.299Z,6.30
2023-04-15T14:02:05.904Z,6.62
2023-04-15T14:05:10.794Z,4.32
2023-04-15T14:08:14.253Z,8.82
2023-04-15T14:11:18.119Z,5.50
2023-04-15T14:14:21.325Z,5.47
2023-04-15T14:17:25.288Z,4.70
2023-04-15T14:20:29.615Z,3.65
2023-04-15T14:23:33.396Z,4.10
2023-04-15T14:26:37.165Z,4.50
2023-04-15T14:29:41.292Z,11.13
2023-04-15T14:32:44.814Z,6.50
2023-04-15T14:35:50.068Z,5.60
2023-04-15T14:38:53.400Z,7.03
2023-04-15T14:41:56.879Z,4.87
2023-04-15T14:45:00.795Z,4.63
2023-04-15T14:48:09.938Z,11.80
2023-04-15T14:51:14.153Z,9.73
2023-04-15T14:54:21.210Z,5.93
2023-04-15T14:57:25.418Z,5.50
2023-04-15T15:00:28.834Z,4.67
2023-04-15T15:03:32.474Z,7.57
2023-04-15T15:06:36.227Z,5.18
2023-04-15T15:09:39.449Z,13.50
2023-04-15T15:12:45.823Z,9.30
2023-04-15T15:15:51.951Z,9.73
2023-04-15T15:18:55.625Z,8.25
2023-04-15T15:21:59.009Z,8.07
2023-04-15T15:25:02.646Z,9.80
2023-04-15T15:28:06.416Z,11.27
2023-04-15T15:31:09.962Z,9.60
2023-04-15T15:34:14.071Z,8.98
2023-04-15T15:37:19.323Z,8.07
2023-04-15T15:40:22.753Z,10.93
2023-04-15T15:43:26.822Z,9.00
2023-04-15T15:46:31.585Z,10.10
2023-04-15T15:49:35.795Z,7.75
2023-04-15T15:52:38.809Z,6.32
2023-04-15T15:55:42.390Z,10.13
2023-04-15T15:58:50.252Z,7.90
2023-04-15T16:01:53.902Z,7.73
2023-04-15T16:04:57.340Z,8.68
2023-04-15T16:08:00.837Z,6.78
2023-04-15T16:11:04.808Z,9.10
2023-04-15T16:14:08.367Z,11.90
2023-04-15T16:17:12.203Z,7.53
2023-04-15T16:20:15.777Z,4.53
2023-04-15T16:23:20.735Z,4.43
2023-04-15T16:26:24.353Z,3.80
2023-04-15T16:29:29.069Z,7.60
2023-04-15T16:32:32.385Z,3.42
2023-04-15T16:35:36.107Z,5.60
2023-04-15T16:38:39.725Z,4.90
2023-04-15T16:41:43.399Z,4.50
2023-04-15T16:44:46.651Z,6.73
2023-04-15T16:47:50.411Z,5.37
2023-04-15T16:50:54.984Z,6.07
2023-04-15T16:53:58.781Z,8.60
2023-04-15T16:57:02.943Z,10.48
2023-04-15T17:00:07.430Z,6.60
2023-04-15T17:03:11.160Z,9.57
2023-04-15T17:06:17.792Z,6.43
2023-04-15T17:09:21.106Z,6.18
2023-04-15T17:12:24.792Z,6.12
2023-04-15T17:15:28.477Z,7.72
2023-04-15T17:18:32.731Z,6.37
2023-04-15T17:21:36.355Z,10.00
2023-04-15T17:24:39.892Z,7.90
2023-04-15T17:27:43.229Z,7.60
2023-04-15T17:30:48.289Z,8.18
2023-04-15T17:34:03.984Z,10.83
2023-04-15T17:37:13.779Z,14.13
2023-04-15T17:40:17.341Z,15.27
2023-04-15T17:43:21.410Z,21.40
2023-04-15T17:46:25.469Z,19.37
2023-04-15T17:49:31.403Z,19.33
2023-04-15T17:52:36.454Z,20.02
2023-04-15T17:55:40.264Z,19.85
2023-04-15T17:58:44.057Z,16.50
2023-04-15T18:01:48.451Z,19.83
2023-04-15T18:05:02.065Z,20.80
2023-04-15T18:08:07.396Z,27.80
2023-04-15T18:11:12.518Z,45.67
2023-04-15T18:14:26.963Z,57.13
2023-04-15T18:17:37.542Z,52.15
2023-04-15T18:20:43.275Z,56.10
2023-04-15T18:23:46.838Z,53.90
2023-04-15T18:26:51.021Z,47.15
2023-04-15T18:29:54.891Z,55.22
2023-04-15T18:33:01.825Z,53.35
2023-04-15T18:36:05.435Z,53.15
2023-04-15T18:39:09.130Z,46.03
2023-04-15T18:42:13.686Z,39.80
2023-04-15T18:45:17.442Z,36.63
2023-04-15T18:48:22.958Z,41.83
2023-04-15T18:51:27.195Z,37.53
2023-04-15T18:54:32.605Z,37.75
2023-04-15T18:57:37.040Z,36.47
2023-04-15T19:00:44.169Z,36.63
2023-04-15T19:03:48.663Z,37.45
2023-04-15T19:06:52.967Z,40.83
2023-04-15T19:09:57.861Z,38.75
2023-04-15T19:13:04.451Z,32.55
2023-04-15T19:16:09.750Z,40.47
2023-04-15T19:19:16.100Z,45.25
2023-04-15T19:22:20.411Z,48.93
2023-04-15T19:25:25.354Z,51.28
2023-04-15T19:28:31.183Z,43.63
2023-04-15T19:31:35.707Z,39.10
2023-04-15T19:34:42.621Z,34.10
2023-04-15T19:37:48.350Z,25.73
2023-04-15T19:40:52.324Z,29.25
2023-04-15T19:43:57.019Z,35.80
2023-04-15T19:47:00.631Z,36.30
2023-04-15T19:50:08.082Z,59.45
2023-04-15T19:53:12.218Z,73.20
2023-04-15T19:56:21.957Z,58.05
2023-04-15T19:59:26.507Z,66.33
2023-04-15T20:02:31.684Z,59.58
2023-04-15T20:05:36.866Z,58.92
2023-04-15T20:08:43.236Z,68.55
2023-04-15T20:12:48.352Z,66.83
2023-04-15T20:15:12.233Z,67.32
2023-04-15T20:18:17.768Z,53.50
2023-04-15T20:21:22.815Z,61.00
2023-04-15T20:24:26.600Z,58.25
2023-04-15T20:27:30.506Z,56.60
2023-04-15T20:30:35.600Z,58.45
2023-04-15T20:33:39.129Z,59.37
2023-04-15T20:36:42.743Z,47.10
2023-04-15T20:39:46.229Z,50.25
2023-04-15T20:42:51.611Z,46.33
2023-04-15T20:45:57.555Z,52.43
2023-04-15T20:49:03.533Z,44.83
2023-04-15T20:52:08.588Z,48.63
2023-04-15T20:55:12.881Z,56.88
2023-04-15T20:58:16.598Z,57.20
2023-04-15T21:01:21.055Z,70.90
2023-04-15T21:04:25.071Z,95.65
2023-04-15T21:07:28.873Z,85.57
2023-04-15T21:10:35.363Z,87.65
2023-04-15T21:13:38.992Z,89.80
2023-04-15T21:16:51.100Z,83.12
2023-04-15T21:19:54.769Z,82.03
2023-04-15T21:22:58.144Z,85.47
2023-04-15T21:26:02.041Z,84.93
2023-04-15T21:29:07.909Z,87.05
2023-04-15T21:32:13.076Z,82.07
2023-04-15T21:35:16.255Z,78.72
2023-04-15T21:38:21.330Z,90.05
2023-04-15T21:41:27.330Z,93.97
2023-04-15T21:44:31.311Z,80.32
2023-04-15T21:47:57.150Z,70.75
2023-04-15T21:51:01.029Z,77.30
2023-04-15T21:54:04.363Z,71.80
2023-04-15T21:57:07.853Z,79.15
2023-04-15T22:00:11.979Z,69.93
2023-04-15T22:03:16.185Z,72.50
2023-04-15T22:06:19.820Z,69.67
2023-04-15T22:09:23.018Z,76.95
2023-04-15T22:12:26.781Z,73.15
2023-04-15T22:15:32.768Z,77.28
2023-04-15T22:18:41.117Z,79.23
2023-04-15T22:21:44.944Z,85.75
2023-04-15T22:24:48.340Z,85.12
2023-04-15T22:27:51.467Z,77.53
2023-04-15T22:30:55.128Z,74.03
2023-04-15T22:33:58.559Z,70.43
2023-04-15T22:37:03.026Z,67.53
2023-04-15T22:40:06.782Z,63.00
2023-04-15T22:43:10.965Z,53.25
2023-04-15T22:46:14.745Z,63.42
2023-04-15T22:49:18.401Z,52.92
2023-04-15T22:52:30.003Z,44.53
2023-04-15T22:55:34.173Z,45.25
2023-04-15T22:58:38.581Z,49.78
2023-04-15T23:01:42.508Z,51.20
2023-04-15T23:04:46.204Z,45.42
2023-04-15T23:07:49.657Z,47.47
2023-04-15T23:10:52.774Z,46.10
2023-04-15T23:13:56.770Z,40.67
2023-04-15T23:17:00.066Z,43.95
2023-04-15T23:20:03.639Z,39.85
2023-04-15T23:23:07.302Z,36.47
2023-04-15T23:26:13.068Z,34.15
2023-04-15T23:29:16.465Z,41.92
2023-04-15T23:32:20.912Z,37.55
2023-04-15T23:35:25.563Z,34.67
2023-04-15T23:38:29.146Z,35.25
2023-04-15T23:41:32.370Z,38.20
2023-04-15T23:44:38.410Z,38.53
2023-04-15T23:47:42.090Z,37.47
2023-04-15T23:50:45.525Z,35.00
2023-04-15T23:53:49.463Z,36.45
2023-04-15T23:56:54.164Z,38.10
2023-04-15T23:59:57.302Z,33.85
